Time;durP1;ratioP1;P1;durP2;ratioP2;P2;SDS_P1;SDS_P2;PMS_P1;PMS_P2;Temp;Humidity;BMP_temperature;BMP_pressure;BME280_temperature;BME280_humidity;BME280_pressure;Samples;Min_cycle;Max_cycle;Signal;HPM_P1;HPM_P2
2023/09/14 00:00:46;;;;;;;20.17;11.52;;;;;;;12.80;83.14;99957.00;5080334;28;20036;-40
2023/09/14 00:03:12;;;;;;;26.02;12.57;;;;;;;12.77;83.29;99962.31;5055594;28;20051;-41
2023/09/14 00:05:42;;;;;;;22.30;12.27;;;;;;;12.73;83.65;99951.16;5063629;28;20044;-42
2023/09/14 00:08:09;;;;;;;26.65;12.02;;;;;;;12.71;83.62;99960.84;5065368;28;20097;-41
2023/09/14 00:10:36;;;;;;;25.35;11.85;;;;;;;12.67;83.98;99960.97;5075874;28;20040;-41
2023/09/14 00:13:02;;;;;;;23.67;13.02;;;;;;;12.64;84.36;99955.91;5078732;28;20044;-42
2023/09/14 00:15:28;;;;;;;27.25;13.75;;;;;;;12.38;84.29;99917.78;5078830;28;20024;-40
2023/09/14 00:17:55;;;;;;;25.15;13.18;;;;;;;12.44;84.41;99927.13;5076721;28;20052;-41
2023/09/14 00:20:22;;;;;;;25.60;13.30;;;;;;;12.59;84.44;99956.06;5071969;28;20127;-42
2023/09/14 00:22:53;;;;;;;31.67;13.77;;;;;;;12.60;84.59;99959.53;5075178;28;20048;-42
2023/09/14 00:25:20;;;;;;;24.48;13.07;;;;;;;12.59;84.74;99950.88;5080142;28;20671;-42
2023/09/14 00:27:46;;;;;;;28.55;12.80;;;;;;;12.53;84.91;99942.41;5070127;28;20048;-41
2023/09/14 00:30:12;;;;;;;23.08;11.70;;;;;;;12.41;84.92;99935.03;5070297;28;20094;-41
2023/09/14 00:32:42;;;;;;;23.67;11.18;;;;;;;12.54;85.07;99947.59;5075243;28;20049;-41
2023/09/14 00:35:10;;;;;;;22.38;11.30;;;;;;;12.52;85.26;99953.75;5072804;28;20093;-42
2023/09/14 00:37:37;;;;;;;23.77;11.63;;;;;;;12.49;85.18;99944.31;5079873;28;20048;-42
2023/09/14 00:40:07;;;;;;;23.88;11.82;;;;;;;12.35;85.69;99922.25;5056448;28;20067;-41
2023/09/14 00:42:46;;;;;;;22.35;11.50;;;;;;;12.45;85.78;99953.16;5076050;28;20085;-41
2023/09/14 00:45:17;;;;;;;26.23;11.27;;;;;;;12.43;85.98;99944.53;5064570;28;20052;-41
2023/09/14 00:47:48;;;;;;;20.13;11.55;;;;;;;12.42;85.89;99942.81;5077013;28;20584;-42
2023/09/14 00:50:16;;;;;;;22.73;10.18;;;;;;;12.39;86.33;99945.56;5078161;28;20512;-42
2023/09/14 00:52:43;;;;;;;20.17;10.25;;;;;;;12.38;86.35;99950.81;5076836;28;20036;-42
2023/09/14 00:55:10;;;;;;;22.27;10.48;;;;;;;12.36;86.58;99947.41;5070993;28;20519;-41
2023/09/14 00:57:35;;;;;;;17.50;10.27;;;;;;;12.35;86.50;99950.94;5061923;28;20036;-42
2023/09/14 01:00:05;;;;;;;16.98;10.10;;;;;;;12.32;86.84;99939.72;5035654;28;20048;-42
2023/09/14 01:02:33;;;;;;;21.33;10.40;;;;;;;12.30;87.09;99944.13;5095319;28;20066;-44
2023/09/14 01:05:00;;;;;;;20.25;9.45;;;;;;;12.22;87.26;99940.97;5065259;28;20076;-43
2023/09/14 01:07:27;;;;;;;24.13;10.68;;;;;;;12.28;87.24;99950.31;5057775;28;20041;-42
2023/09/14 01:09:53;;;;;;;20.17;10.23;;;;;;;12.25;87.43;99948.66;5076389;28;20047;-41
2023/09/14 01:12:19;;;;;;;26.10;10.85;;;;;;;12.20;87.46;99947.97;5068238;28;20098;-40
2023/09/14 01:15:21;;;;;;;19.98;9.88;;;;;;;12.17;87.90;99945.50;5077378;28;20086;-42
2023/09/14 01:17:59;;;;;;;21.27;10.05;;;;;;;12.19;87.71;99953.28;5059185;28;20043;-41
2023/09/14 01:20:49;;;;;;;24.92;11.00;;;;;;;12.17;88.04;99955.06;5065064;28;20110;-42
2023/09/14 01:23:48;;;;;;;18.98;10.20;;;;;;;12.13;88.12;99949.13;5069950;28;20184;-40
2023/09/14 01:26:15;;;;;;;21.30;9.80;;;;;;;12.11;88.09;99952.69;5067503;28;20724;-40
2023/09/14 01:28:41;;;;;;;20.00;10.32;;;;;;;11.92;88.12;99923.84;5066297;28;20107;-41
2023/09/14 01:31:07;;;;;;;24.92;11.35;;;;;;;12.08;88.64;99953.66;5067273;28;20511;-41
2023/09/14 01:33:32;;;;;;;23.75;11.70;;;;;;;11.98;88.36;99933.19;5071379;28;20044;-41
2023/09/14 01:36:04;;;;;;;21.15;11.48;;;;;;;12.11;88.60;99952.69;5052806;28;20042;-41
2023/09/14 01:38:32;;;;;;;23.08;11.70;;;;;;;11.95;88.80;99923.72;5073224;28;20052;-42
2023/09/14 01:40:58;;;;;;;20.65;10.45;;;;;;;12.11;88.66;99955.28;5079817;28;20040;-40
2023/09/14 01:43:25;;;;;;;22.35;10.63;;;;;;;12.12;88.42;99957.84;5065704;28;20047;-41
2023/09/14 01:45:51;;;;;;;23.40;10.23;;;;;;;12.10;88.89;99954.44;5057066;28;20106;-41
2023/09/14 01:48:18;;;;;;;20.42;10.18;;;;;;;12.11;88.83;99963.97;5048556;28;20040;-46
2023/09/14 01:50:44;;;;;;;27.55;10.93;;;;;;;11.95;88.73;99921.13;5057689;28;20040;-41
2023/09/14 01:53:10;;;;;;;22.50;9.38;;;;;;;12.15;88.66;99957.72;5073039;28;20036;-43
2023/09/14 01:55:37;;;;;;;18.63;10.30;;;;;;;12.14;88.64;99956.00;5053497;28;20572;-41
2023/09/14 01:58:03;;;;;;;16.70;9.43;;;;;;;12.15;88.97;99952.50;5072632;28;20558;-42
2023/09/14 02:00:28;;;;;;;19.27;10.50;;;;;;;12.16;88.93;99958.56;5054442;28;20151;-42
2023/09/14 02:02:54;;;;;;;23.60;10.65;;;;;;;12.13;88.80;99956.09;5075179;28;20539;-42
2023/09/14 02:05:20;;;;;;;21.70;10.68;;;;;;;12.08;89.13;99966.69;5056489;28;20056;-42
2023/09/14 02:07:46;;;;;;;20.65;10.43;;;;;;;11.87;89.41;99939.66;5076329;28;20040;-42
2023/09/14 02:10:13;;;;;;;21.50;10.52;;;;;;;12.02;89.85;99955.63;5054640;28;20052;-41
2023/09/14 02:12:39;;;;;;;21.00;10.88;;;;;;;11.89;89.45;99940.41;5079687;28;20036;-41
2023/09/14 02:15:08;;;;;;;24.73;11.90;;;;;;;11.95;90.08;99961.94;5064072;28;20072;-42
2023/09/14 02:17:37;;;;;;;20.10;11.38;;;;;;;11.72;89.85;99928.88;5079040;28;20036;-43
2023/09/14 02:20:07;;;;;;;24.98;11.45;;;;;;;11.88;90.04;99964.75;5054581;28;20040;-43
2023/09/14 02:22:33;;;;;;;27.38;12.10;;;;;;;11.86;89.98;99965.75;5079812;28;20431;-41
2023/09/14 02:24:59;;;;;;;23.20;11.40;;;;;;;11.83;90.36;99958.88;5079757;28;20104;-41
2023/09/14 02:27:24;;;;;;;25.90;12.00;;;;;;;11.82;90.32;99959.78;5083368;28;20036;-41
2023/09/14 02:29:54;;;;;;;19.75;11.73;;;;;;;11.81;90.62;99958.09;5074887;28;20094;-42
2023/09/14 02:32:20;;;;;;;26.90;11.63;;;;;;;11.79;90.65;99966.84;5073679;28;20039;-41
2023/09/14 02:34:46;;;;;;;25.45;11.45;;;;;;;11.78;90.58;99965.13;5073064;28;20052;-41
2023/09/14 02:37:13;;;;;;;21.13;11.38;;;;;;;11.76;90.39;99957.41;5064707;28;20047;-41
2023/09/14 02:39:38;;;;;;;23.90;11.98;;;;;;;11.61;90.91;99929.25;5060399;28;20079;-42
2023/09/14 02:42:04;;;;;;;21.33;11.30;;;;;;;11.58;90.93;99931.09;5081353;28;20418;-43
2023/09/14 02:44:30;;;;;;;24.52;11.77;;;;;;;11.74;90.82;99966.16;5064297;28;20482;-41
2023/09/14 02:46:56;;;;;;;23.58;11.00;;;;;;;11.73;91.29;99956.63;5068604;28;20036;-43
2023/09/14 02:49:22;;;;;;;21.88;11.10;;;;;;;11.71;90.95;99954.06;5080769;28;20075;-42
2023/09/14 02:51:47;;;;;;;22.85;11.38;;;;;;;11.69;91.03;99957.63;5064539;28;20090;-41
2023/09/14 02:54:13;;;;;;;20.42;10.68;;;;;;;11.51;91.00;99924.41;5063750;28;20050;-40
2023/09/14 02:56:40;;;;;;;22.88;10.98;;;;;;;11.69;91.15;99962.81;5071020;28;20048;-42
2023/09/14 02:59:06;;;;;;;23.17;11.50;;;;;;;11.70;91.06;99962.78;5060509;28;20068;-40
2023/09/14 03:01:32;;;;;;;27.00;12.02;;;;;;;11.69;91.40;99968.88;5071770;28;20042;-42
2023/09/14 03:03:58;;;;;;;27.77;11.50;;;;;;;11.58;91.43;99952.78;5074812;28;20060;-41
2023/09/14 03:06:25;;;;;;;24.73;10.52;;;;;;;11.54;91.18;99924.28;5072198;28;20082;-42
2023/09/14 03:08:51;;;;;;;19.25;10.45;;;;;;;11.63;91.36;99937.84;5074175;28;20408;-43
2023/09/14 03:11:17;;;;;;;22.90;11.13;;;;;;;11.79;91.30;99966.84;5073482;28;20039;-42
2023/09/14 03:13:42;;;;;;;22.33;11.00;;;;;;;11.82;90.57;99966.75;5073926;28;20075;-43
2023/09/14 03:16:08;;;;;;;25.27;11.98;;;;;;;11.83;90.71;99963.22;5069508;28;20122;-43
2023/09/14 03:18:35;;;;;;;21.13;10.77;;;;;;;11.76;91.13;99960.00;5054900;28;20106;-42
2023/09/14 03:21:01;;;;;;;18.70;10.23;;;;;;;11.78;91.15;99970.34;5063333;28;20089;-42
2023/09/14 03:23:29;;;;;;;20.48;10.70;;;;;;;11.78;91.14;99966.00;5069626;28;20051;-44
2023/09/14 03:25:56;;;;;;;26.73;10.90;;;;;;;11.77;91.52;99964.31;5070020;28;20067;-42
2023/09/14 03:28:22;;;;;;;20.40;11.00;;;;;;;11.77;91.71;99973.88;5054930;28;20127;-42
2023/09/14 03:30:48;;;;;;;21.20;11.35;;;;;;;11.77;91.51;99969.53;5073893;28;20501;-42
2023/09/14 03:33:14;;;;;;;24.17;11.13;;;;;;;11.81;91.59;99967.66;5079752;28;20040;-43
2023/09/14 03:35:43;;;;;;;18.33;10.85;;;;;;;11.87;91.47;99972.66;5074144;28;20044;-42
2023/09/14 03:38:08;;;;;;;28.65;12.93;;;;;;;11.90;91.76;99975.16;5053146;28;20102;-43
2023/09/14 03:40:34;;;;;;;25.35;11.90;;;;;;;11.94;91.74;99981.94;5070176;28;20048;-42
2023/09/14 03:43:00;;;;;;;20.40;11.30;;;;;;;12.00;91.79;99975.66;5070982;28;20043;-42
2023/09/14 03:45:26;;;;;;;20.98;11.10;;;;;;;12.04;91.40;99974.66;5067775;28;20043;-42
2023/09/14 03:47:54;;;;;;;24.38;11.02;;;;;;;12.06;91.26;99972.84;5076885;28;20044;-42
2023/09/14 03:50:19;;;;;;;25.13;11.73;;;;;;;11.94;91.22;99936.78;5065204;28;20048;-43
2023/09/14 03:52:45;;;;;;;30.92;12.70;;;;;;;12.10;91.17;99964.84;5066614;28;20044;-41
2023/09/14 03:55:11;;;;;;;23.52;12.52;;;;;;;12.13;91.01;99972.59;5074823;28;20047;-42
2023/09/14 03:57:37;;;;;;;24.08;12.73;;;;;;;12.15;91.37;99975.97;5075593;28;20055;-42
2023/09/14 04:00:09;;;;;;;24.42;12.55;;;;;;;12.19;90.60;99971.50;5070715;28;20174;-47
2023/09/14 04:02:39;;;;;;;24.02;12.10;;;;;;;12.22;90.32;99979.22;5072218;28;20144;-44
2023/09/14 04:05:14;;;;;;;23.75;11.85;;;;;;;12.25;90.24;99974.72;5034472;28;1250810;-44
2023/09/14 04:07:39;;;;;;;21.27;11.15;;;;;;;12.27;90.09;99967.72;5069713;28;20041;-43
2023/09/14 04:10:06;;;;;;;26.23;12.55;;;;;;;12.16;90.19;99954.22;5080541;28;20553;-46
2023/09/14 04:12:32;;;;;;;26.00;12.10;;;;;;;12.38;90.07;99982.97;5070579;28;20439;-44
2023/09/14 04:14:57;;;;;;;25.33;11.88;;;;;;;12.43;89.81;99981.03;5076012;28;20029;-43
2023/09/14 04:17:24;;;;;;;31.38;12.50;;;;;;;12.48;89.43;99976.50;5054917;28;20040;-42
2023/09/14 04:19:50;;;;;;;36.35;12.75;;;;;;;12.54;89.49;99980.63;5067920;28;20037;-41
2023/09/14 04:22:15;;;;;;;48.63;12.82;;;;;;;12.60;88.89;99981.25;5067453;28;20051;-43
2023/09/14 04:24:41;;;;;;;41.95;13.05;;;;;;;12.65;88.97;99975.88;5076735;28;20154;-44
2023/09/14 04:27:07;;;;;;;24.20;12.05;;;;;;;12.73;88.66;99985.09;5070985;28;20578;-43
2023/09/14 04:29:33;;;;;;;38.33;13.48;;;;;;;12.82;88.46;99981.28;5062043;28;20040;-42
2023/09/14 04:31:59;;;;;;;31.10;11.75;;;;;;;12.85;88.16;99970.72;5075449;28;20173;-44
2023/09/14 04:34:27;;;;;;;26.05;11.48;;;;;;;12.97;88.02;99974.63;5078610;28;20039;-45
2023/09/14 04:36:52;;;;;;;27.52;12.93;;;;;;;13.00;87.59;99959.69;5060061;28;20071;-43
2023/09/14 04:39:18;;;;;;;30.95;13.70;;;;;;;13.11;87.44;99975.81;5050940;28;20595;-44
2023/09/14 04:41:45;;;;;;;25.27;13.23;;;;;;;13.18;87.10;99967.72;5074351;28;20536;-46
2023/09/14 04:44:11;;;;;;;30.25;13.20;;;;;;;13.27;86.87;99973.41;5064716;28;20044;-44
2023/09/14 04:46:37;;;;;;;26.55;13.55;;;;;;;13.38;86.47;99978.22;5075785;28;20067;-42
2023/09/14 04:49:03;;;;;;;30.80;13.25;;;;;;;13.46;86.28;99971.75;5073652;28;20044;-44
2023/09/14 04:51:29;;;;;;;32.55;13.57;;;;;;;13.56;86.03;99973.06;5075179;28;20968;-44
2023/09/14 04:53:54;;;;;;;37.42;13.23;;;;;;;13.50;85.82;99944.56;5076086;28;20036;-44
2023/09/14 04:56:20;;;;;;;24.23;13.40;;;;;;;13.75;85.41;99977.53;5073229;28;20047;-42
2023/09/14 04:58:46;;;;;;;30.52;13.52;;;;;;;13.86;85.00;99988.38;5073417;28;20043;-43
2023/09/14 05:01:12;;;;;;;26.15;13.57;;;;;;;13.98;84.63;99990.44;5051301;28;20526;-42
2023/09/14 05:03:39;;;;;;;25.20;13.50;;;;;;;14.09;84.21;99987.34;5074228;28;20048;-42
2023/09/14 05:06:05;;;;;;;29.67;14.02;;;;;;;14.02;83.46;99954.56;5074082;28;20532;-44
2023/09/14 05:08:31;;;;;;;27.48;15.55;;;;;;;14.29;82.95;99976.84;5064802;28;20047;-44
2023/09/14 05:10:58;;;;;;;30.98;14.52;;;;;;;14.36;82.76;99966.09;5073866;28;20066;-47
2023/09/14 05:13:24;;;;;;;36.75;14.63;;;;;;;14.54;82.04;99987.97;5066808;28;20195;-44
2023/09/14 05:15:50;;;;;;;28.80;13.98;;;;;;;14.61;81.66;99965.81;5060514;28;20424;-43
2023/09/14 05:18:21;;;;;;;31.92;14.88;;;;;;;14.71;80.77;99956.59;5087086;28;20045;-45
2023/09/14 05:20:47;;;;;;;25.80;13.45;;;;;;;14.92;80.06;99975.69;5067325;28;20054;-45
2023/09/14 05:23:13;;;;;;;30.70;13.82;;;;;;;15.04;79.79;99977.75;5070365;28;20644;-44
2023/09/14 05:25:40;;;;;;;32.63;13.30;;;;;;;15.18;78.97;99969.19;5062266;28;20140;-42
2023/09/14 05:28:06;;;;;;;29.75;14.25;;;;;;;15.31;78.30;99972.09;5049586;28;20044;-43
2023/09/14 05:30:32;;;;;;;26.25;13.70;;;;;;;15.48;77.90;99974.72;5057012;28;20149;-43
2023/09/14 05:32:58;;;;;;;28.90;15.02;;;;;;;15.62;77.22;99970.53;5039723;28;20082;-43
2023/09/14 05:35:24;;;;;;;28.90;14.45;;;;;;;15.79;76.84;99972.28;5070652;28;20090;-43
2023/09/14 05:37:51;;;;;;;37.85;14.35;;;;;;;15.80;75.91;99939.06;5051398;28;20067;-43
2023/09/14 05:40:17;;;;;;;23.88;14.05;;;;;;;16.13;75.20;99960.03;5042743;28;20102;-45
2023/09/14 05:42:43;;;;;;;28.70;13.77;;;;;;;16.35;74.48;99969.31;5073616;28;20534;-46
2023/09/14 05:45:11;;;;;;;28.40;13.98;;;;;;;16.55;73.94;99970.88;5078483;28;20067;-45
2023/09/14 05:47:38;;;;;;;29.13;14.77;;;;;;;16.86;72.71;99968.28;5082242;28;20039;-44
2023/09/14 05:50:06;;;;;;;23.92;13.70;;;;;;;17.41;70.73;99966.97;5074878;28;20058;-46
2023/09/14 05:52:32;;;;;;;27.55;13.93;;;;;;;17.98;68.92;99973.22;5068506;28;20041;-44
2023/09/14 05:54:59;;;;;;;26.67;13.63;;;;;;;18.59;66.53;99962.44;5074978;28;20044;-45
2023/09/14 05:57:27;;;;;;;30.48;13.02;;;;;;;19.45;64.16;99966.53;5044724;28;20041;-47
2023/09/14 05:59:52;;;;;;;30.58;13.82;;;;;;;20.26;62.47;99967.97;5075706;28;20089;-43
2023/09/14 06:02:19;;;;;;;24.98;12.55;;;;;;;21.04;60.48;99960.63;5072768;28;20032;-46
2023/09/14 06:04:47;;;;;;;27.58;12.70;;;;;;;21.88;58.16;99963.13;5076636;28;20051;-43
2023/09/14 06:07:13;;;;;;;25.30;11.95;;;;;;;22.64;55.79;99938.63;5071286;28;20098;-44
2023/09/14 06:09:39;;;;;;;28.52;15.68;;;;;;;23.55;53.21;99962.16;5072569;28;20046;-49
2023/09/14 06:12:06;;;;;;;27.10;12.20;;;;;;;24.27;51.15;99963.06;5074321;28;20039;-46
2023/09/14 06:14:33;;;;;;;18.83;10.48;;;;;;;24.71;48.20;99961.78;5066978;28;20078;-43
2023/09/14 06:16:59;;;;;;;21.13;10.55;;;;;;;25.16;46.47;99966.69;5084120;28;20127;-51
2023/09/14 06:19:25;;;;;;;15.05;10.05;;;;;;;25.39;44.50;99967.25;5072201;28;20144;-45
2023/09/14 06:21:52;;;;;;;18.73;9.40;;;;;;;25.76;43.24;99956.75;5068979;28;20158;-45
2023/09/14 06:24:18;;;;;;;16.65;9.43;;;;;;;26.53;41.97;99962.72;5079249;28;20040;-47
2023/09/14 06:26:44;;;;;;;14.23;9.18;;;;;;;27.20;40.01;99926.78;5057975;28;20151;-46
2023/09/14 06:29:13;;;;;;;16.25;9.02;;;;;;;27.55;38.51;99945.47;5059570;28;20404;-45
2023/09/14 06:31:40;;;;;;;14.10;8.82;;;;;;;27.89;37.42;99939.41;5069349;28;20036;-45
2023/09/14 06:34:06;;;;;;;17.10;9.18;;;;;;;28.51;36.40;99946.28;5081160;28;20097;-45
2023/09/14 06:36:32;;;;;;;16.75;8.77;;;;;;;29.20;35.33;99948.69;5064541;28;20483;-44
2023/09/14 06:38:59;;;;;;;13.07;8.00;;;;;;;29.89;34.31;99950.03;5072572;28;20132;-44
2023/09/14 06:41:24;;;;;;;15.38;8.85;;;;;;;30.15;33.88;99950.66;5078707;28;20059;-46
2023/09/14 06:43:50;;;;;;;13.15;7.80;;;;;;;30.82;32.73;99943.06;5059902;28;20103;-48
2023/09/14 06:46:16;;;;;;;15.13;7.72;;;;;;;30.68;31.74;99941.94;5072899;28;20040;-44
2023/09/14 06:48:42;;;;;;;17.10;8.40;;;;;;;30.84;31.37;99924.91;5071160;28;20079;-44
2023/09/14 06:51:08;;;;;;;15.18;8.48;;;;;;;31.46;30.04;99943.66;5070924;28;20049;-43
2023/09/14 06:53:35;;;;;;;12.02;7.70;;;;;;;31.45;29.67;99948.22;5065367;28;20097;-44
2023/09/14 06:56:09;;;;;;;14.60;7.70;;;;;;;31.98;29.06;99941.84;5069873;28;20047;-46
2023/09/14 06:58:35;;;;;;;10.80;7.50;;;;;;;32.29;28.65;99948.97;5059387;28;20048;-50
2023/09/14 07:01:03;;;;;;;11.15;6.55;;;;;;;32.24;28.45;99948.69;5047665;28;20519;-45
2023/09/14 07:03:31;;;;;;;13.05;6.57;;;;;;;32.82;27.50;99934.31;5077238;28;20072;-47
2023/09/14 07:05:57;;;;;;;9.75;6.10;;;;;;;34.09;26.58;99943.41;5080411;28;20052;-48
2023/09/14 07:08:23;;;;;;;14.05;6.57;;;;;;;34.23;25.58;99939.81;5077312;28;20047;-48
2023/09/14 07:10:49;;;;;;;8.60;5.75;;;;;;;33.86;25.03;99906.75;5077725;28;20377;-44
2023/09/14 07:13:15;;;;;;;12.45;6.45;;;;;;;33.61;25.68;99935.97;5075343;28;20040;-45
2023/09/14 07:15:41;;;;;;;13.13;6.10;;;;;;;33.97;25.80;99911.56;5046896;28;20056;-48
2023/09/14 07:18:09;;;;;;;14.90;7.47;;;;;;;34.69;24.80;99940.06;5078711;28;20127;-45
2023/09/14 07:20:35;;;;;;;10.65;7.07;;;;;;;34.85;24.60;99934.28;5075173;28;20041;-46
2023/09/14 07:23:01;;;;;;;8.75;6.55;;;;;;;34.68;24.38;99930.25;5073921;28;20046;-51
2023/09/14 07:25:28;;;;;;;8.45;6.05;;;;;;;34.10;24.42;99916.22;5041195;28;20044;-48
2023/09/14 07:27:54;;;;;;;8.90;5.60;;;;;;;33.94;24.57;99928.16;5064151;28;20044;-49
2023/09/14 07:30:20;;;;;;;8.68;5.57;;;;;;;34.38;24.63;99919.75;5066020;28;20291;-47
2023/09/14 07:32:46;;;;;;;12.43;6.25;;;;;;;34.44;23.73;99928.88;5058327;28;20044;-49
2023/09/14 07:35:12;;;;;;;9.38;6.20;;;;;;;33.46;24.64;99927.13;5068880;28;20416;-45
2023/09/14 07:37:38;;;;;;;9.45;5.95;;;;;;;33.14;24.75;99906.06;5062014;28;20139;-51
2023/09/14 07:40:05;;;;;;;11.32;5.82;;;;;;;33.28;24.41;99921.38;5065197;28;20094;-50
2023/09/14 07:42:31;;;;;;;12.15;6.00;;;;;;;32.74;24.89;99935.28;5060670;28;20116;-52
2023/09/14 07:44:57;;;;;;;9.80;5.60;;;;;;;31.64;25.50;99903.88;5070291;28;20138;-51
2023/09/14 07:47:29;;;;;;;10.40;5.38;;;;;;;31.14;26.26;99905.25;5076598;28;20137;-51
2023/09/14 07:49:56;;;;;;;7.47;4.47;;;;;;;30.51;26.61;99923.44;5078213;28;20504;-48
2023/09/14 07:52:23;;;;;;;6.43;5.20;;;;;;;29.98;27.68;99921.41;5068526;28;20048;-48
2023/09/14 07:54:49;;;;;;;6.78;5.50;;;;;;;29.64;27.85;99890.25;5079541;28;20667;-53
2023/09/14 07:57:15;;;;;;;8.90;5.35;;;;;;;29.65;28.16;99913.38;5081717;28;20040;-48
2023/09/14 07:59:41;;;;;;;5.82;4.32;;;;;;;29.96;28.15;99884.03;5069725;28;20054;-48
2023/09/14 08:02:08;;;;;;;8.68;4.68;;;;;;;30.36;27.46;99901.81;5073575;28;20435;-48
2023/09/14 08:04:34;;;;;;;10.20;4.38;;;;;;;30.95;27.29;99907.56;5067979;28;20052;-48
2023/09/14 08:06:59;;;;;;;9.57;5.63;;;;;;;30.63;27.54;99912.13;5072072;28;20412;-49
2023/09/14 08:09:26;;;;;;;13.40;5.32;;;;;;;30.16;27.74;99900.53;5074555;28;20047;-46
2023/09/14 08:11:51;;;;;;;7.75;4.65;;;;;;;29.70;28.16;99902.97;5075430;28;20460;-48
2023/09/14 08:14:17;;;;;;;7.57;4.40;;;;;;;30.12;27.76;99880.44;5075044;28;20047;-48
2023/09/14 08:16:43;;;;;;;8.15;4.50;;;;;;;31.30;26.93;99896.25;5078954;28;20032;-49
2023/09/14 08:19:09;;;;;;;10.32;5.53;;;;;;;31.80;26.25;99902.88;5066776;28;20044;-47
2023/09/14 08:21:35;;;;;;;8.35;5.13;;;;;;;31.40;26.67;99869.97;5060159;28;20041;-49
2023/09/14 08:24:02;;;;;;;9.45;5.30;;;;;;;31.51;27.09;99887.50;5066634;28;20174;-47
2023/09/14 08:26:28;;;;;;;7.93;4.93;;;;;;;31.67;26.10;99900.81;5085845;28;20040;-50
2023/09/14 08:28:54;;;;;;;8.13;4.85;;;;;;;31.71;25.97;99877.94;5067538;28;20800;-50
2023/09/14 08:31:21;;;;;;;8.30;4.53;;;;;;;32.10;25.42;99892.97;5030983;28;20415;-49
2023/09/14 08:33:47;;;;;;;9.00;5.10;;;;;;;31.89;25.39;99870.34;5076606;28;20494;-47
2023/09/14 08:36:13;;;;;;;10.90;4.90;;;;;;;32.81;24.96;99865.34;5053712;28;20110;-48
2023/09/14 08:38:39;;;;;;;6.53;4.85;;;;;;;33.44;24.40;99891.47;5069100;28;20118;-44
2023/09/14 08:41:13;;;;;;;5.35;4.50;;;;;;;33.63;24.12;99893.47;5070325;28;20075;-49
2023/09/14 08:43:39;;;;;;;7.20;4.80;;;;;;;34.39;23.43;99891.69;5060364;28;20037;-48
2023/09/14 08:46:06;;;;;;;7.75;4.60;;;;;;;34.16;23.37;99893.84;5072900;28;20043;-46
2023/09/14 08:48:33;;;;;;;5.65;4.32;;;;;;;34.67;22.71;99890.75;5059056;28;20167;-48
2023/09/14 08:51:00;;;;;;;7.05;4.53;;;;;;;33.69;23.46;99891.06;5065403;28;20504;-47
2023/09/14 08:53:26;;;;;;;6.47;4.88;;;;;;;33.37;23.73;99874.38;5071638;28;20040;-46
2023/09/14 08:55:51;;;;;;;11.40;5.50;;;;;;;34.03;23.38;99882.97;5050922;28;20101;-46
2023/09/14 08:58:18;;;;;;;5.40;4.90;;;;;;;34.45;22.79;99850.38;5073745;28;20223;-46
2023/09/14 09:00:46;;;;;;;5.18;4.07;;;;;;;35.21;21.82;99877.19;5055310;28;20071;-48
2023/09/14 09:03:12;;;;;;;8.05;5.15;;;;;;;35.17;21.60;99854.31;5056095;28;20135;-49
2023/09/14 09:05:38;;;;;;;8.20;4.47;;;;;;;35.60;21.45;99876.34;5077669;28;20106;-47
2023/09/14 09:08:04;;;;;;;5.65;3.90;;;;;;;36.17;21.08;99862.13;5051107;28;20044;-48
2023/09/14 09:10:31;;;;;;;9.90;3.83;;;;;;;36.53;20.61;99865.06;5076206;28;20145;-49
2023/09/14 09:12:59;;;;;;;8.13;3.72;;;;;;;36.55;20.37;99858.63;5072531;28;20155;-49
2023/09/14 09:15:29;;;;;;;5.03;4.07;;;;;;;36.27;20.69;99858.97;5073896;28;20047;-47
2023/09/14 09:18:04;;;;;;;6.68;4.40;;;;;;;36.08;20.87;99857.97;5059481;28;20470;-51
2023/09/14 09:20:31;;;;;;;6.72;4.60;;;;;;;35.28;21.38;99853.69;5076175;28;20041;-50
2023/09/14 09:23:00;;;;;;;5.45;4.90;;;;;;;34.98;21.99;99861.34;5055125;28;20071;-51
2023/09/14 09:25:29;;;;;;;7.55;4.82;;;;;;;34.57;22.29;99861.44;5057006;28;20032;-53
2023/09/14 09:28:03;;;;;;;8.40;4.88;;;;;;;33.90;22.71;99851.34;5068978;28;20051;-48
2023/09/14 09:30:30;;;;;;;10.75;5.60;;;;;;;33.72;23.35;99848.31;5043295;28;20704;-51
2023/09/14 09:32:56;;;;;;;19.27;5.70;;;;;;;33.76;22.73;99829.91;5076347;28;20075;-47
2023/09/14 09:35:25;;;;;;;7.55;5.18;;;;;;;33.68;23.16;99852.44;5075928;28;20045;-51
2023/09/14 09:37:53;;;;;;;6.07;5.07;;;;;;;32.60;24.05;99831.13;5077512;28;20035;-49
2023/09/14 09:40:21;;;;;;;5.88;4.32;;;;;;;34.41;22.48;99848.28;5077680;28;20473;-51
2023/09/14 09:42:48;;;;;;;7.68;4.43;;;;;;;34.73;22.06;99844.88;5073547;28;20115;-50
2023/09/14 09:45:15;;;;;;;9.43;4.30;;;;;;;36.02;21.00;99843.41;5067488;28;20068;-50
2023/09/14 09:47:41;;;;;;;8.20;4.47;;;;;;;34.52;22.24;99822.56;5072023;28;20085;-47
2023/09/14 09:50:09;;;;;;;7.13;4.27;;;;;;;34.63;21.85;99809.28;5078524;28;20143;-48
2023/09/14 09:52:36;;;;;;;7.93;4.70;;;;;;;35.10;21.55;99816.44;5071882;28;20080;-48
2023/09/14 09:55:04;;;;;;;7.72;4.85;;;;;;;36.43;20.65;99831.41;5093691;28;20093;-51
2023/09/14 09:57:35;;;;;;;8.13;4.90;;;;;;;37.46;19.68;99831.94;5077761;28;20036;-47
2023/09/14 10:00:12;;;;;;;4.68;3.78;;;;;;;39.05;18.40;99813.44;5072128;28;20049;-48
2023/09/14 10:02:39;;;;;;;7.00;4.53;;;;;;;39.57;18.03;99840.88;5072745;28;20141;-49
2023/09/14 10:05:06;;;;;;;5.20;4.65;;;;;;;39.10;18.07;99835.34;5066444;28;20049;-50
2023/09/14 10:07:42;;;;;;;6.85;4.07;;;;;;;36.23;20.22;99825.22;5074229;28;20114;-49
2023/09/14 10:10:09;;;;;;;8.10;4.43;;;;;;;34.65;21.70;99826.13;5064735;28;20058;-46
2023/09/14 10:12:40;;;;;;;7.00;4.67;;;;;;;35.38;21.64;99827.09;5064593;28;20136;-49
2023/09/14 10:15:07;;;;;;;7.95;4.90;;;;;;;36.17;20.48;99796.31;5065983;28;20082;-49
2023/09/14 10:17:34;;;;;;;6.18;4.15;;;;;;;35.01;21.32;99811.47;5063957;28;20056;-46
2023/09/14 10:20:08;;;;;;;7.50;4.05;;;;;;;35.14;21.52;99808.75;5078312;28;20071;-47
2023/09/14 10:22:36;;;;;;;7.82;4.47;;;;;;;36.89;20.05;99802.16;5077868;28;20044;-47
2023/09/14 10:25:04;;;;;;;4.95;3.50;;;;;;;38.18;18.87;99806.75;5060332;28;20059;-50
2023/09/14 10:27:30;;;;;;;6.32;3.85;;;;;;;35.47;20.81;99776.28;5067409;28;20037;-48
2023/09/14 10:29:57;;;;;;;8.13;4.60;;;;;;;34.03;22.47;99810.09;5069137;28;20123;-47
2023/09/14 10:32:24;;;;;;;5.22;4.18;;;;;;;34.52;22.05;99809.88;5077873;28;20149;-50
2023/09/14 10:34:51;;;;;;;5.97;4.07;;;;;;;35.43;21.57;99802.94;5079694;28;20047;-49
2023/09/14 10:37:20;;;;;;;8.30;4.00;;;;;;;36.56;20.61;99787.97;5075635;28;20099;-48
2023/09/14 10:39:46;;;;;;;7.75;4.35;;;;;;;37.68;19.69;99797.94;5076061;28;20032;-47
2023/09/14 10:42:12;;;;;;;8.00;4.57;;;;;;;38.37;19.40;99800.22;5079369;28;20044;-46
2023/09/14 10:44:38;;;;;;;9.57;3.90;;;;;;;39.06;18.14;99787.91;5057017;28;20041;-53
2023/09/14 10:47:05;;;;;;;4.35;3.80;;;;;;;38.55;18.36;99796.66;5082240;28;20043;-46
2023/09/14 10:49:35;;;;;;;7.25;3.80;;;;;;;37.88;18.70;99803.97;5064908;28;20093;-47
2023/09/14 10:52:02;;;;;;;5.05;4.07;;;;;;;37.24;18.96;99801.69;5077697;28;20135;-49
2023/09/14 10:54:30;;;;;;;4.10;3.60;;;;;;;36.98;19.24;99791.84;5077765;28;20412;-52
2023/09/14 10:57:00;;;;;;;6.03;3.92;;;;;;;37.73;18.82;99796.22;5071723;28;20048;-51
2023/09/14 10:59:47;;;;;;;5.15;3.70;;;;;;;37.91;18.44;99795.34;5073360;28;20040;-49
2023/09/14 11:02:48;;;;;;;5.40;3.83;;;;;;;37.45;18.82;99793.13;5087860;28;20117;-51
2023/09/14 11:05:23;;;;;;;7.10;3.60;;;;;;;35.34;19.90;99790.66;5087873;28;20354;-49
2023/09/14 11:08:02;;;;;;;4.70;3.10;;;;;;;35.77;20.14;99788.31;5071892;28;20500;-47
2023/09/14 11:10:29;;;;;;;6.72;3.90;;;;;;;36.14;19.46;99762.38;5080958;28;20042;-52
2023/09/14 11:13:20;;;;;;;4.80;3.37;;;;;;;36.66;19.44;99782.94;5080107;28;20511;-47
2023/09/14 11:16:13;;;;;;;5.53;3.78;;;;;;;36.54;19.86;99779.22;5085999;28;20130;-51
2023/09/14 11:18:42;;;;;;;7.53;3.60;;;;;;;36.62;20.07;99781.72;5072160;28;20048;-48
2023/09/14 11:21:31;;;;;;;7.22;3.60;;;;;;;38.26;18.58;99782.00;5070865;28;20036;-48
2023/09/14 11:23:58;;;;;;;5.15;3.67;;;;;;;38.82;18.12;99784.31;5080847;28;20043;-51
2023/09/14 11:26:34;;;;;;;3.80;3.20;;;;;;;39.13;17.46;99780.47;5072908;28;20040;-52